sensor_id;sensor_type;location;lat;lon;timestamp;P1;durP1;ratioP1;P2;durP2;ratioP2
870;SDS011;422;51.280;7.236;2024-03-02T00:01:18;5.10;;;3.60;;
870;SDS011;422;51.280;7.236;2024-03-02T00:03:48;4.37;;;3.40;;
870;SDS011;422;51.280;7.236;2024-03-02T00:06:15;3.90;;;3.07;;
870;SDS011;422;51.280;7.236;2024-03-02T00:08:46;5.20;;;3.47;;
870;SDS011;422;51.280;7.236;2024-03-02T00:11:14;4.23;;;3.50;;
870;SDS011;422;51.280;7.236;2024-03-02T00:13:41;5.07;;;3.10;;
870;SDS011;422;51.280;7.236;2024-03-02T00:16:10;5.53;;;3.27;;
870;SDS011;422;51.280;7.236;2024-03-02T00:18:38;4.20;;;3.57;;
870;SDS011;422;51.280;7.236;2024-03-02T00:21:06;3.07;;;2.70;;
870;SDS011;422;51.280;7.236;2024-03-02T00:23:35;3.47;;;2.67;;
870;SDS011;422;51.280;7.236;2024-03-02T00:26:03;3.73;;;3.00;;
870;SDS011;422;51.280;7.236;2024-03-02T00:28:34;3.80;;;2.80;;
870;SDS011;422;51.280;7.236;2024-03-02T00:31:03;4.43;;;2.53;;
870;SDS011;422;51.280;7.236;2024-03-02T00:33:33;3.10;;;2.60;;
870;SDS011;422;51.280;7.236;2024-03-02T00:36:01;4.47;;;2.20;;
870;SDS011;422;51.280;7.236;2024-03-02T00:38:29;5.83;;;2.70;;
870;SDS011;422;51.280;7.236;2024-03-02T00:40:58;3.47;;;2.80;;
870;SDS011;422;51.280;7.236;2024-03-02T00:43:38;3.83;;;2.77;;
870;SDS011;422;51.280;7.236;2024-03-02T00:46:10;4.40;;;2.83;;
870;SDS011;422;51.280;7.236;2024-03-02T00:48:41;3.17;;;2.27;;
870;SDS011;422;51.280;7.236;2024-03-02T00:51:14;5.13;;;3.00;;
870;SDS011;422;51.280;7.236;2024-03-02T00:53:41;3.50;;;2.30;;
870;SDS011;422;51.280;7.236;2024-03-02T00:56:09;5.00;;;2.70;;
870;SDS011;422;51.280;7.236;2024-03-02T00:58:38;4.10;;;2.60;;
870;SDS011;422;51.280;7.236;2024-03-02T01:01:06;4.30;;;2.87;;
870;SDS011;422;51.280;7.236;2024-03-02T01:03:33;3.13;;;2.40;;
870;SDS011;422;51.280;7.236;2024-03-02T01:06:01;3.23;;;2.40;;
870;SDS011;422;51.280;7.236;2024-03-02T01:08:28;3.80;;;2.87;;
870;SDS011;422;51.280;7.236;2024-03-02T01:10:55;3.23;;;2.10;;
870;SDS011;422;51.280;7.236;2024-03-02T01:13:23;4.37;;;2.60;;
870;SDS011;422;51.280;7.236;2024-03-02T01:15:50;2.80;;;2.13;;
870;SDS011;422;51.280;7.236;2024-03-02T01:18:18;4.40;;;2.60;;
870;SDS011;422;51.280;7.236;2024-03-02T01:20:46;4.20;;;2.50;;
870;SDS011;422;51.280;7.236;2024-03-02T01:23:15;4.23;;;2.40;;
870;SDS011;422;51.280;7.236;2024-03-02T01:25:42;6.00;;;2.70;;
870;SDS011;422;51.280;7.236;2024-03-02T01:28:09;4.00;;;2.80;;
870;SDS011;422;51.280;7.236;2024-03-02T01:30:36;7.60;;;2.83;;
870;SDS011;422;51.280;7.236;2024-03-02T01:33:04;3.07;;;2.40;;
870;SDS011;422;51.280;7.236;2024-03-02T01:35:31;3.20;;;2.23;;
870;SDS011;422;51.280;7.236;2024-03-02T01:38:00;3.80;;;2.67;;
870;SDS011;422;51.280;7.236;2024-03-02T01:40:29;4.03;;;2.77;;
870;SDS011;422;51.280;7.236;2024-03-02T01:42:56;3.03;;;2.40;;
870;SDS011;422;51.280;7.236;2024-03-02T01:45:24;3.47;;;2.17;;
870;SDS011;422;51.280;7.236;2024-03-02T01:47:51;4.23;;;3.00;;
870;SDS011;422;51.280;7.236;2024-03-02T01:50:24;4.00;;;2.60;;
870;SDS011;422;51.280;7.236;2024-03-02T01:52:52;4.47;;;2.50;;
870;SDS011;422;51.280;7.236;2024-03-02T01:55:20;6.87;;;2.50;;
870;SDS011;422;51.280;7.236;2024-03-02T01:57:49;3.83;;;2.57;;
870;SDS011;422;51.280;7.236;2024-03-02T02:00:17;3.83;;;2.10;;
870;SDS011;422;51.280;7.236;2024-03-02T02:02:45;7.20;;;2.60;;
870;SDS011;422;51.280;7.236;2024-03-02T02:05:14;2.70;;;2.00;;
870;SDS011;422;51.280;7.236;2024-03-02T02:07:41;3.30;;;2.10;;
870;SDS011;422;51.280;7.236;2024-03-02T02:10:09;3.37;;;2.20;;
870;SDS011;422;51.280;7.236;2024-03-02T02:12:37;4.57;;;2.53;;
870;SDS011;422;51.280;7.236;2024-03-02T02:15:07;3.17;;;2.30;;
870;SDS011;422;51.280;7.236;2024-03-02T02:17:49;3.73;;;2.30;;
870;SDS011;422;51.280;7.236;2024-03-02T02:20:16;4.70;;;2.57;;
870;SDS011;422;51.280;7.236;2024-03-02T02:22:54;5.60;;;2.40;;
870;SDS011;422;51.280;7.236;2024-03-02T02:25:22;3.90;;;2.70;;
870;SDS011;422;51.280;7.236;2024-03-02T02:27:49;4.40;;;2.40;;
870;SDS011;422;51.280;7.236;2024-03-02T02:30:20;5.13;;;2.50;;
870;SDS011;422;51.280;7.236;2024-03-02T02:32:48;3.80;;;2.23;;
870;SDS011;422;51.280;7.236;2024-03-02T02:35:15;4.27;;;2.20;;
870;SDS011;422;51.280;7.236;2024-03-02T02:37:42;4.47;;;2.40;;
870;SDS011;422;51.280;7.236;2024-03-02T02:40:12;2.80;;;2.00;;
870;SDS011;422;51.280;7.236;2024-03-02T02:42:40;3.20;;;2.30;;
870;SDS011;422;51.280;7.236;2024-03-02T02:45:07;2.83;;;2.23;;
870;SDS011;422;51.280;7.236;2024-03-02T02:47:36;3.67;;;2.30;;
870;SDS011;422;51.280;7.236;2024-03-02T02:50:03;2.80;;;2.20;;
870;SDS011;422;51.280;7.236;2024-03-02T02:52:33;4.80;;;2.67;;
870;SDS011;422;51.280;7.236;2024-03-02T02:55:03;3.23;;;2.40;;
870;SDS011;422;51.280;7.236;2024-03-02T02:57:32;2.70;;;2.30;;
870;SDS011;422;51.280;7.236;2024-03-02T03:00:01;3.70;;;2.10;;
870;SDS011;422;51.280;7.236;2024-03-02T03:02:35;3.93;;;2.60;;
870;SDS011;422;51.280;7.236;2024-03-02T03:05:04;3.47;;;2.33;;
870;SDS011;422;51.280;7.236;2024-03-02T03:07:32;5.73;;;3.00;;
870;SDS011;422;51.280;7.236;2024-03-02T03:10:01;3.93;;;2.33;;
870;SDS011;422;51.280;7.236;2024-03-02T03:12:29;3.33;;;2.50;;
870;SDS011;422;51.280;7.236;2024-03-02T03:14:58;3.90;;;2.40;;
870;SDS011;422;51.280;7.236;2024-03-02T03:17:25;3.03;;;2.20;;
870;SDS011;422;51.280;7.236;2024-03-02T03:19:53;4.83;;;2.30;;
870;SDS011;422;51.280;7.236;2024-03-02T03:22:21;4.03;;;2.30;;
870;SDS011;422;51.280;7.236;2024-03-02T03:24:48;3.10;;;1.83;;
870;SDS011;422;51.280;7.236;2024-03-02T03:27:15;3.83;;;2.70;;
870;SDS011;422;51.280;7.236;2024-03-02T03:29:44;2.90;;;2.40;;
870;SDS011;422;51.280;7.236;2024-03-02T03:32:11;3.30;;;2.10;;
870;SDS011;422;51.280;7.236;2024-03-02T03:34:39;3.60;;;2.33;;
870;SDS011;422;51.280;7.236;2024-03-02T03:37:06;4.03;;;2.17;;
870;SDS011;422;51.280;7.236;2024-03-02T03:39:34;2.80;;;2.10;;
870;SDS011;422;51.280;7.236;2024-03-02T03:42:02;3.03;;;2.33;;
870;SDS011;422;51.280;7.236;2024-03-02T03:44:29;2.90;;;2.40;;
870;SDS011;422;51.280;7.236;2024-03-02T03:46:58;3.57;;;2.30;;
870;SDS011;422;51.280;7.236;2024-03-02T03:49:26;5.27;;;2.50;;
870;SDS011;422;51.280;7.236;2024-03-02T03:51:53;3.27;;;2.00;;
870;SDS011;422;51.280;7.236;2024-03-02T03:54:20;4.60;;;2.40;;
870;SDS011;422;51.280;7.236;2024-03-02T03:56:47;3.80;;;2.23;;
870;SDS011;422;51.280;7.236;2024-03-02T03:59:14;4.50;;;2.20;;
870;SDS011;422;51.280;7.236;2024-03-02T04:01:41;2.67;;;2.00;;
870;SDS011;422;51.280;7.236;2024-03-02T04:04:10;4.57;;;2.33;;
870;SDS011;422;51.280;7.236;2024-03-02T04:06:37;5.40;;;2.70;;
870;SDS011;422;51.280;7.236;2024-03-02T04:09:04;2.97;;;2.47;;
870;SDS011;422;51.280;7.236;2024-03-02T04:11:32;3.30;;;2.20;;
870;SDS011;422;51.280;7.236;2024-03-02T04:13:59;3.17;;;2.23;;
870;SDS011;422;51.280;7.236;2024-03-02T04:16:26;4.13;;;2.40;;
870;SDS011;422;51.280;7.236;2024-03-02T04:18:54;4.00;;;2.67;;
870;SDS011;422;51.280;7.236;2024-03-02T04:21:23;5.67;;;2.37;;
870;SDS011;422;51.280;7.236;2024-03-02T04:23:50;3.43;;;2.47;;
870;SDS011;422;51.280;7.236;2024-03-02T04:26:18;3.57;;;2.23;;
870;SDS011;422;51.280;7.236;2024-03-02T04:28:47;3.90;;;2.50;;
870;SDS011;422;51.280;7.236;2024-03-02T04:31:15;4.37;;;2.30;;
870;SDS011;422;51.280;7.236;2024-03-02T04:33:42;4.27;;;2.90;;
870;SDS011;422;51.280;7.236;2024-03-02T04:36:09;3.30;;;2.63;;
870;SDS011;422;51.280;7.236;2024-03-02T04:38:38;4.37;;;3.00;;
870;SDS011;422;51.280;7.236;2024-03-02T04:41:05;4.17;;;3.50;;
870;SDS011;422;51.280;7.236;2024-03-02T04:43:33;4.13;;;2.60;;
870;SDS011;422;51.280;7.236;2024-03-02T04:46:01;3.10;;;2.30;;
870;SDS011;422;51.280;7.236;2024-03-02T04:48:28;6.30;;;2.80;;
870;SDS011;422;51.280;7.236;2024-03-02T04:50:55;5.20;;;2.60;;
870;SDS011;422;51.280;7.236;2024-03-02T04:53:22;8.17;;;3.93;;
870;SDS011;422;51.280;7.236;2024-03-02T04:55:51;3.60;;;2.90;;
870;SDS011;422;51.280;7.236;2024-03-02T04:58:44;3.60;;;2.60;;
870;SDS011;422;51.280;7.236;2024-03-02T05:01:11;6.83;;;3.20;;
870;SDS011;422;51.280;7.236;2024-03-02T05:03:39;3.77;;;3.00;;
870;SDS011;422;51.280;7.236;2024-03-02T05:06:06;5.33;;;2.53;;
870;SDS011;422;51.280;7.236;2024-03-02T05:08:33;4.77;;;3.20;;
870;SDS011;422;51.280;7.236;2024-03-02T05:11:02;3.57;;;2.43;;
870;SDS011;422;51.280;7.236;2024-03-02T05:13:43;5.60;;;2.90;;
870;SDS011;422;51.280;7.236;2024-03-02T05:16:11;5.10;;;3.27;;
870;SDS011;422;51.280;7.236;2024-03-02T05:18:38;5.07;;;2.77;;
870;SDS011;422;51.280;7.236;2024-03-02T05:21:05;5.47;;;3.20;;
870;SDS011;422;51.280;7.236;2024-03-02T05:23:32;5.17;;;3.03;;
870;SDS011;422;51.280;7.236;2024-03-02T05:26:00;6.70;;;3.33;;
870;SDS011;422;51.280;7.236;2024-03-02T05:28:28;3.90;;;2.80;;
870;SDS011;422;51.280;7.236;2024-03-02T05:30:55;4.10;;;3.13;;
870;SDS011;422;51.280;7.236;2024-03-02T05:33:23;3.57;;;3.27;;
870;SDS011;422;51.280;7.236;2024-03-02T05:35:50;5.00;;;3.27;;
870;SDS011;422;51.280;7.236;2024-03-02T05:38:17;5.13;;;3.70;;
870;SDS011;422;51.280;7.236;2024-03-02T05:40:44;8.73;;;3.67;;
870;SDS011;422;51.280;7.236;2024-03-02T05:43:12;4.17;;;3.40;;
870;SDS011;422;51.280;7.236;2024-03-02T05:45:40;5.63;;;4.03;;
870;SDS011;422;51.280;7.236;2024-03-02T05:48:07;5.77;;;4.00;;
870;SDS011;422;51.280;7.236;2024-03-02T05:50:35;3.77;;;3.13;;
870;SDS011;422;51.280;7.236;2024-03-02T05:53:02;6.80;;;3.67;;
870;SDS011;422;51.280;7.236;2024-03-02T05:55:30;5.57;;;4.13;;
870;SDS011;422;51.280;7.236;2024-03-02T05:57:57;5.03;;;4.03;;
870;SDS011;422;51.280;7.236;2024-03-02T06:00:42;5.63;;;4.23;;
870;SDS011;422;51.280;7.236;2024-03-02T06:03:09;4.43;;;4.00;;
870;SDS011;422;51.280;7.236;2024-03-02T06:05:36;5.10;;;3.93;;
870;SDS011;422;51.280;7.236;2024-03-02T06:08:04;5.30;;;3.90;;
870;SDS011;422;51.280;7.236;2024-03-02T06:10:31;7.23;;;4.83;;
870;SDS011;422;51.280;7.236;2024-03-02T06:12:58;5.37;;;3.87;;
870;SDS011;422;51.280;7.236;2024-03-02T06:15:26;7.10;;;4.50;;
870;SDS011;422;51.280;7.236;2024-03-02T06:17:54;6.60;;;4.77;;
870;SDS011;422;51.280;7.236;2024-03-02T06:20:21;9.20;;;4.40;;
870;SDS011;422;51.280;7.236;2024-03-02T06:22:49;7.63;;;4.47;;
870;SDS011;422;51.280;7.236;2024-03-02T06:25:16;5.07;;;4.10;;
870;SDS011;422;51.280;7.236;2024-03-02T06:27:44;6.43;;;4.67;;
870;SDS011;422;51.280;7.236;2024-03-02T06:30:12;5.00;;;3.97;;
870;SDS011;422;51.280;7.236;2024-03-02T06:32:39;5.27;;;3.93;;
870;SDS011;422;51.280;7.236;2024-03-02T06:35:08;5.87;;;4.47;;
870;SDS011;422;51.280;7.236;2024-03-02T06:37:35;8.07;;;5.17;;
870;SDS011;422;51.280;7.236;2024-03-02T06:40:03;5.20;;;4.13;;
870;SDS011;422;51.280;7.236;2024-03-02T06:42:32;4.97;;;4.47;;
870;SDS011;422;51.280;7.236;2024-03-02T06:45:00;8.10;;;5.20;;
870;SDS011;422;51.280;7.236;2024-03-02T06:47:27;10.43;;;5.83;;
870;SDS011;422;51.280;7.236;2024-03-02T06:49:55;5.20;;;4.23;;
870;SDS011;422;51.280;7.236;2024-03-02T06:52:24;5.77;;;4.90;;
870;SDS011;422;51.280;7.236;2024-03-02T06:54:52;7.67;;;4.90;;
870;SDS011;422;51.280;7.236;2024-03-02T06:57:19;11.17;;;9.10;;
870;SDS011;422;51.280;7.236;2024-03-02T06:59:47;10.40;;;7.10;;
870;SDS011;422;51.280;7.236;2024-03-02T07:02:16;12.20;;;8.97;;
870;SDS011;422;51.280;7.236;2024-03-02T07:04:44;12.37;;;9.73;;
870;SDS011;422;51.280;7.236;2024-03-02T07:07:11;14.97;;;11.47;;
870;SDS011;422;51.280;7.236;2024-03-02T07:09:40;10.63;;;7.50;;
870;SDS011;422;51.280;7.236;2024-03-02T07:12:07;7.60;;;6.30;;
870;SDS011;422;51.280;7.236;2024-03-02T07:14:35;9.00;;;6.60;;
870;SDS011;422;51.280;7.236;2024-03-02T07:17:36;6.13;;;4.90;;
870;SDS011;422;51.280;7.236;2024-03-02T07:20:04;9.33;;;6.53;;
870;SDS011;422;51.280;7.236;2024-03-02T07:22:33;9.03;;;6.83;;
870;SDS011;422;51.280;7.236;2024-03-02T07:25:04;10.00;;;6.53;;
870;SDS011;422;51.280;7.236;2024-03-02T07:27:32;15.20;;;9.50;;
870;SDS011;422;51.280;7.236;2024-03-02T07:30:01;9.17;;;5.70;;
870;SDS011;422;51.280;7.236;2024-03-02T07:32:28;7.90;;;6.03;;
870;SDS011;422;51.280;7.236;2024-03-02T07:34:55;7.40;;;6.50;;
870;SDS011;422;51.280;7.236;2024-03-02T07:37:23;5.87;;;4.83;;
870;SDS011;422;51.280;7.236;2024-03-02T07:39:50;8.53;;;5.20;;
870;SDS011;422;51.280;7.236;2024-03-02T07:42:19;7.00;;;4.97;;
870;SDS011;422;51.280;7.236;2024-03-02T07:44:46;5.60;;;4.90;;
870;SDS011;422;51.280;7.236;2024-03-02T07:47:16;6.93;;;5.20;;
870;SDS011;422;51.280;7.236;2024-03-02T07:49:44;6.40;;;4.47;;
870;SDS011;422;51.280;7.236;2024-03-02T07:52:12;5.20;;;3.93;;
870;SDS011;422;51.280;7.236;2024-03-02T07:54:39;5.53;;;4.13;;
870;SDS011;422;51.280;7.236;2024-03-02T07:57:07;6.00;;;3.73;;
870;SDS011;422;51.280;7.236;2024-03-02T07:59:37;6.73;;;4.50;;
870;SDS011;422;51.280;7.236;2024-03-02T08:02:05;6.77;;;4.07;;
870;SDS011;422;51.280;7.236;2024-03-02T08:04:33;5.03;;;3.87;;
870;SDS011;422;51.280;7.236;2024-03-02T08:07:01;5.27;;;3.97;;
870;SDS011;422;51.280;7.236;2024-03-02T08:09:28;7.03;;;3.67;;
870;SDS011;422;51.280;7.236;2024-03-02T08:11:56;5.37;;;3.33;;
870;SDS011;422;51.280;7.236;2024-03-02T08:14:23;4.73;;;3.33;;
870;SDS011;422;51.280;7.236;2024-03-02T08:16:52;4.73;;;3.50;;
870;SDS011;422;51.280;7.236;2024-03-02T08:19:19;6.07;;;2.97;;
870;SDS011;422;51.280;7.236;2024-03-02T08:21:47;4.87;;;3.70;;
870;SDS011;422;51.280;7.236;2024-03-02T08:24:15;4.90;;;3.93;;
870;SDS011;422;51.280;7.236;2024-03-02T08:26:42;7.03;;;3.23;;
870;SDS011;422;51.280;7.236;2024-03-02T08:29:09;4.70;;;2.70;;
870;SDS011;422;51.280;7.236;2024-03-02T08:31:38;5.17;;;3.60;;
870;SDS011;422;51.280;7.236;2024-03-02T08:34:06;4.30;;;3.30;;
870;SDS011;422;51.280;7.236;2024-03-02T08:36:34;4.07;;;3.30;;
870;SDS011;422;51.280;7.236;2024-03-02T08:39:02;5.87;;;3.10;;
870;SDS011;422;51.280;7.236;2024-03-02T08:41:40;4.00;;;3.10;;
870;SDS011;422;51.280;7.236;2024-03-02T08:44:08;3.60;;;2.97;;
870;SDS011;422;51.280;7.236;2024-03-02T08:46:36;3.70;;;2.90;;
870;SDS011;422;51.280;7.236;2024-03-02T08:49:04;4.37;;;3.27;;
870;SDS011;422;51.280;7.236;2024-03-02T08:51:33;4.47;;;3.43;;
870;SDS011;422;51.280;7.236;2024-03-02T08:54:00;5.63;;;3.13;;
870;SDS011;422;51.280;7.236;2024-03-02T08:56:29;3.53;;;2.80;;
870;SDS011;422;51.280;7.236;2024-03-02T08:58:56;4.17;;;2.90;;
870;SDS011;422;51.280;7.236;2024-03-02T09:01:24;6.43;;;3.60;;
870;SDS011;422;51.280;7.236;2024-03-02T09:03:52;4.43;;;2.93;;
870;SDS011;422;51.280;7.236;2024-03-02T09:06:19;5.00;;;3.10;;
870;SDS011;422;51.280;7.236;2024-03-02T09:08:48;3.30;;;2.50;;
870;SDS011;422;51.280;7.236;2024-03-02T09:11:17;3.83;;;2.97;;
870;SDS011;422;51.280;7.236;2024-03-02T09:13:44;4.37;;;2.67;;
870;SDS011;422;51.280;7.236;2024-03-02T09:16:12;4.20;;;2.87;;
870;SDS011;422;51.280;7.236;2024-03-02T09:18:39;3.30;;;2.90;;
870;SDS011;422;51.280;7.236;2024-03-02T09:21:07;3.60;;;2.77;;
870;SDS011;422;51.280;7.236;2024-03-02T09:23:35;3.67;;;2.97;;
870;SDS011;422;51.280;7.236;2024-03-02T09:26:05;4.50;;;3.30;;
870;SDS011;422;51.280;7.236;2024-03-02T09:28:33;3.00;;;2.23;;
870;SDS011;422;51.280;7.236;2024-03-02T09:31:00;3.13;;;2.60;;
870;SDS011;422;51.280;7.236;2024-03-02T09:33:28;3.37;;;2.00;;
870;SDS011;422;51.280;7.236;2024-03-02T09:35:55;3.30;;;2.63;;
870;SDS011;422;51.280;7.236;2024-03-02T09:38:22;3.50;;;2.80;;
870;SDS011;422;51.280;7.236;2024-03-02T09:40:50;3.20;;;2.33;;
870;SDS011;422;51.280;7.236;2024-03-02T09:43:18;2.87;;;2.10;;
870;SDS011;422;51.280;7.236;2024-03-02T09:45:46;6.23;;;2.40;;
870;SDS011;422;51.280;7.236;2024-03-02T09:48:14;3.20;;;2.40;;
870;SDS011;422;51.280;7.236;2024-03-02T09:50:43;2.50;;;2.30;;
870;SDS011;422;51.280;7.236;2024-03-02T09:53:11;3.10;;;2.10;;
870;SDS011;422;51.280;7.236;2024-03-02T09:55:40;3.13;;;2.27;;
870;SDS011;422;51.280;7.236;2024-03-02T09:58:11;3.07;;;2.10;;
870;SDS011;422;51.280;7.236;2024-03-02T10:00:40;3.13;;;2.23;;
870;SDS011;422;51.280;7.236;2024-03-02T10:03:10;3.40;;;2.10;;
870;SDS011;422;51.280;7.236;2024-03-02T10:05:38;4.50;;;2.10;;
870;SDS011;422;51.280;7.236;2024-03-02T10:08:06;3.17;;;2.30;;
870;SDS011;422;51.280;7.236;2024-03-02T10:10:34;3.20;;;2.50;;
870;SDS011;422;51.280;7.236;2024-03-02T10:13:05;2.37;;;2.17;;
870;SDS011;422;51.280;7.236;2024-03-02T10:15:34;2.77;;;2.10;;
870;SDS011;422;51.280;7.236;2024-03-02T10:18:04;3.43;;;2.00;;
870;SDS011;422;51.280;7.236;2024-03-02T10:20:31;2.73;;;2.30;;
870;SDS011;422;51.280;7.236;2024-03-02T10:23:09;2.93;;;2.40;;
870;SDS011;422;51.280;7.236;2024-03-02T10:25:37;3.50;;;2.60;;
870;SDS011;422;51.280;7.236;2024-03-02T10:28:05;4.17;;;2.37;;
870;SDS011;422;51.280;7.236;2024-03-02T10:30:33;3.60;;;1.97;;
870;SDS011;422;51.280;7.236;2024-03-02T10:33:01;3.00;;;2.37;;
870;SDS011;422;51.280;7.236;2024-03-02T10:35:32;2.90;;;2.47;;
870;SDS011;422;51.280;7.236;2024-03-02T10:38:03;4.33;;;2.40;;
870;SDS011;422;51.280;7.236;2024-03-02T10:40:32;3.00;;;2.33;;
870;SDS011;422;51.280;7.236;2024-03-02T10:43:00;3.10;;;2.00;;
870;SDS011;422;51.280;7.236;2024-03-02T10:45:30;3.37;;;2.20;;
870;SDS011;422;51.280;7.236;2024-03-02T10:47:58;3.77;;;2.47;;
870;SDS011;422;51.280;7.236;2024-03-02T10:50:29;3.10;;;2.00;;
870;SDS011;422;51.280;7.236;2024-03-02T10:52:57;3.47;;;2.27;;
870;SDS011;422;51.280;7.236;2024-03-02T10:55:25;3.50;;;2.30;;
870;SDS011;422;51.280;7.236;2024-03-02T10:57:53;4.90;;;2.97;;
870;SDS011;422;51.280;7.236;2024-03-02T11:00:23;2.97;;;2.67;;
870;SDS011;422;51.280;7.236;2024-03-02T11:02:55;2.77;;;2.27;;
870;SDS011;422;51.280;7.236;2024-03-02T11:05:26;5.13;;;2.50;;
870;SDS011;422;51.280;7.236;2024-03-02T11:08:00;2.83;;;2.13;;
870;SDS011;422;51.280;7.236;2024-03-02T11:10:32;3.50;;;2.13;;
870;SDS011;422;51.280;7.236;2024-03-02T11:13:04;2.87;;;2.57;;
870;SDS011;422;51.280;7.236;2024-03-02T11:15:35;2.60;;;2.30;;
870;SDS011;422;51.280;7.236;2024-03-02T11:18:04;2.63;;;2.20;;
870;SDS011;422;51.280;7.236;2024-03-02T11:20:34;3.23;;;2.50;;
870;SDS011;422;51.280;7.236;2024-03-02T11:23:06;3.27;;;2.30;;
870;SDS011;422;51.280;7.236;2024-03-02T11:25:35;2.97;;;1.73;;
870;SDS011;422;51.280;7.236;2024-03-02T11:28:04;2.60;;;1.90;;
870;SDS011;422;51.280;7.236;2024-03-02T11:30:50;4.20;;;2.23;;
870;SDS011;422;51.280;7.236;2024-03-02T11:33:24;2.80;;;2.37;;
870;SDS011;422;51.280;7.236;2024-03-02T11:35:54;2.20;;;2.00;;
870;SDS011;422;51.280;7.236;2024-03-02T11:38:26;2.40;;;2.20;;
870;SDS011;422;51.280;7.236;2024-03-02T11:40:55;2.67;;;1.90;;
870;SDS011;422;51.280;7.236;2024-03-02T11:43:23;3.60;;;2.10;;
870;SDS011;422;51.280;7.236;2024-03-02T11:45:57;3.23;;;2.03;;
870;SDS011;422;51.280;7.236;2024-03-02T11:48:25;2.40;;;2.20;;
870;SDS011;422;51.280;7.236;2024-03-02T11:50:53;2.80;;;2.20;;
870;SDS011;422;51.280;7.236;2024-03-02T11:53:26;3.13;;;2.10;;
870;SDS011;422;51.280;7.236;2024-03-02T11:55:55;3.60;;;2.30;;
870;SDS011;422;51.280;7.236;2024-03-02T11:58:22;3.30;;;2.00;;
870;SDS011;422;51.280;7.236;2024-03-02T12:00:52;3.57;;;2.43;;
870;SDS011;422;51.280;7.236;2024-03-02T12:03:21;4.20;;;2.60;;
870;SDS011;422;51.280;7.236;2024-03-02T12:05:50;2.77;;;2.53;;
870;SDS011;422;51.280;7.236;2024-03-02T12:08:19;3.33;;;1.77;;
870;SDS011;422;51.280;7.236;2024-03-02T12:10:57;3.00;;;2.43;;
870;SDS011;422;51.280;7.236;2024-03-02T12:13:25;3.43;;;2.80;;
870;SDS011;422;51.280;7.236;2024-03-02T12:15:53;3.20;;;2.27;;
870;SDS011;422;51.280;7.236;2024-03-02T12:18:22;2.80;;;2.10;;
870;SDS011;422;51.280;7.236;2024-03-02T12:20:50;3.20;;;2.37;;
870;SDS011;422;51.280;7.236;2024-03-02T12:23:21;3.50;;;2.67;;
870;SDS011;422;51.280;7.236;2024-03-02T12:25:49;2.43;;;1.70;;
870;SDS011;422;51.280;7.236;2024-03-02T12:28:19;2.57;;;1.60;;
870;SDS011;422;51.280;7.236;2024-03-02T12:30:46;3.07;;;1.90;;
870;SDS011;422;51.280;7.236;2024-03-02T12:33:15;2.73;;;1.87;;
870;SDS011;422;51.280;7.236;2024-03-02T12:35:43;2.13;;;1.93;;
870;SDS011;422;51.280;7.236;2024-03-02T12:38:11;3.00;;;2.50;;
870;SDS011;422;51.280;7.236;2024-03-02T12:40:39;4.50;;;2.70;;
870;SDS011;422;51.280;7.236;2024-03-02T12:43:07;2.60;;;2.10;;
870;SDS011;422;51.280;7.236;2024-03-02T12:45:35;3.90;;;2.60;;
870;SDS011;422;51.280;7.236;2024-03-02T12:48:04;4.20;;;2.17;;
870;SDS011;422;51.280;7.236;2024-03-02T12:50:32;2.70;;;2.17;;
870;SDS011;422;51.280;7.236;2024-03-02T12:53:00;3.13;;;2.20;;
870;SDS011;422;51.280;7.236;2024-03-02T12:55:28;3.60;;;2.20;;
870;SDS011;422;51.280;7.236;2024-03-02T12:57:55;2.23;;;1.90;;
870;SDS011;422;51.280;7.236;2024-03-02T13:00:24;5.70;;;2.80;;
870;SDS011;422;51.280;7.236;2024-03-02T13:02:53;3.23;;;2.10;;
870;SDS011;422;51.280;7.236;2024-03-02T13:05:29;2.70;;;1.90;;
870;SDS011;422;51.280;7.236;2024-03-02T13:07:58;2.20;;;2.00;;
870;SDS011;422;51.280;7.236;2024-03-02T13:10:26;1.83;;;1.50;;
870;SDS011;422;51.280;7.236;2024-03-02T13:12:55;2.80;;;2.07;;
870;SDS011;422;51.280;7.236;2024-03-02T13:15:23;2.83;;;2.40;;
870;SDS011;422;51.280;7.236;2024-03-02T13:17:53;3.13;;;2.23;;
870;SDS011;422;51.280;7.236;2024-03-02T13:20:29;4.07;;;2.70;;
870;SDS011;422;51.280;7.236;2024-03-02T13:22:58;2.60;;;2.20;;
870;SDS011;422;51.280;7.236;2024-03-02T13:25:25;2.40;;;1.70;;
870;SDS011;422;51.280;7.236;2024-03-02T13:27:52;2.30;;;2.00;;
870;SDS011;422;51.280;7.236;2024-03-02T13:30:20;2.30;;;2.03;;
870;SDS011;422;51.280;7.236;2024-03-02T13:32:47;2.43;;;1.70;;
870;SDS011;422;51.280;7.236;2024-03-02T13:35:16;2.13;;;1.83;;
870;SDS011;422;51.280;7.236;2024-03-02T13:37:43;2.23;;;1.77;;
870;SDS011;422;51.280;7.236;2024-03-02T13:40:11;1.97;;;1.77;;
870;SDS011;422;51.280;7.236;2024-03-02T13:42:43;2.50;;;1.90;;
870;SDS011;422;51.280;7.236;2024-03-02T13:45:10;4.90;;;2.50;;
870;SDS011;422;51.280;7.236;2024-03-02T13:47:37;2.77;;;2.00;;
870;SDS011;422;51.280;7.236;2024-03-02T13:50:05;3.47;;;2.70;;
870;SDS011;422;51.280;7.236;2024-03-02T13:52:35;2.40;;;2.20;;
870;SDS011;422;51.280;7.236;2024-03-02T13:55:02;3.03;;;2.20;;
870;SDS011;422;51.280;7.236;2024-03-02T13:57:30;3.63;;;2.30;;
870;SDS011;422;51.280;7.236;2024-03-02T13:59:57;2.10;;;1.77;;
870;SDS011;422;51.280;7.236;2024-03-02T14:02:24;3.03;;;2.00;;
870;SDS011;422;51.280;7.236;2024-03-02T14:04:52;2.73;;;2.27;;
870;SDS011;422;51.280;7.236;2024-03-02T14:07:19;2.33;;;2.00;;
870;SDS011;422;51.280;7.236;2024-03-02T14:09:48;3.50;;;2.20;;
870;SDS011;422;51.280;7.236;2024-03-02T14:12:16;2.67;;;2.23;;
870;SDS011;422;51.280;7.236;2024-03-02T14:14:43;2.90;;;2.07;;
870;SDS011;422;51.280;7.236;2024-03-02T14:17:11;1.80;;;1.50;;
870;SDS011;422;51.280;7.236;2024-03-02T14:19:40;2.67;;;2.10;;
870;SDS011;422;51.280;7.236;2024-03-02T14:22:08;2.33;;;1.67;;
870;SDS011;422;51.280;7.236;2024-03-02T14:24:38;3.57;;;2.07;;
870;SDS011;422;51.280;7.236;2024-03-02T14:27:07;3.20;;;2.10;;
870;SDS011;422;51.280;7.236;2024-03-02T14:29:35;3.40;;;1.90;;
870;SDS011;422;51.280;7.236;2024-03-02T14:32:03;2.40;;;2.10;;
870;SDS011;422;51.280;7.236;2024-03-02T14:34:31;4.93;;;2.50;;
870;SDS011;422;51.280;7.236;2024-03-02T14:36:58;4.00;;;2.83;;
870;SDS011;422;51.280;7.236;2024-03-02T14:39:26;3.90;;;2.63;;
870;SDS011;422;51.280;7.236;2024-03-02T14:41:54;3.97;;;2.90;;
870;SDS011;422;51.280;7.236;2024-03-02T14:44:22;5.00;;;3.33;;
870;SDS011;422;51.280;7.236;2024-03-02T14:46:50;5.40;;;2.60;;
870;SDS011;422;51.280;7.236;2024-03-02T14:49:17;5.27;;;2.50;;
870;SDS011;422;51.280;7.236;2024-03-02T14:51:45;4.50;;;3.60;;
870;SDS011;422;51.280;7.236;2024-03-02T14:54:14;3.97;;;2.20;;
870;SDS011;422;51.280;7.236;2024-03-02T14:56:42;2.90;;;2.30;;
870;SDS011;422;51.280;7.236;2024-03-02T14:59:10;3.87;;;3.30;;
870;SDS011;422;51.280;7.236;2024-03-02T15:01:39;4.63;;;2.43;;
870;SDS011;422;51.280;7.236;2024-03-02T15:04:06;3.10;;;2.80;;
870;SDS011;422;51.280;7.236;2024-03-02T15:06:34;4.10;;;2.70;;
870;SDS011;422;51.280;7.236;2024-03-02T15:09:01;6.07;;;3.07;;
870;SDS011;422;51.280;7.236;2024-03-02T15:11:28;4.37;;;3.10;;
870;SDS011;422;51.280;7.236;2024-03-02T15:13:56;4.50;;;3.23;;
870;SDS011;422;51.280;7.236;2024-03-02T15:16:24;3.27;;;2.63;;
870;SDS011;422;51.280;7.236;2024-03-02T15:18:55;3.30;;;2.37;;
870;SDS011;422;51.280;7.236;2024-03-02T15:21:22;5.20;;;3.60;;
870;SDS011;422;51.280;7.236;2024-03-02T15:23:49;3.83;;;2.77;;
870;SDS011;422;51.280;7.236;2024-03-02T15:26:17;4.20;;;3.37;;
870;SDS011;422;51.280;7.236;2024-03-02T15:28:44;5.27;;;2.70;;
870;SDS011;422;51.280;7.236;2024-03-02T15:31:12;5.20;;;3.10;;
870;SDS011;422;51.280;7.236;2024-03-02T15:33:39;2.90;;;2.60;;
870;SDS011;422;51.280;7.236;2024-03-02T15:36:08;3.07;;;2.77;;
870;SDS011;422;51.280;7.236;2024-03-02T15:38:36;3.70;;;2.83;;
870;SDS011;422;51.280;7.236;2024-03-02T15:41:04;3.47;;;2.73;;
870;SDS011;422;51.280;7.236;2024-03-02T15:43:31;3.60;;;2.33;;
870;SDS011;422;51.280;7.236;2024-03-02T15:46:01;3.67;;;2.90;;
870;SDS011;422;51.280;7.236;2024-03-02T15:48:29;3.50;;;2.73;;
870;SDS011;422;51.280;7.236;2024-03-02T15:50:58;3.13;;;2.83;;
870;SDS011;422;51.280;7.236;2024-03-02T15:53:26;4.00;;;2.60;;